createdAt,value
2022-11-09T00:00:18.951Z,100.00
2022-11-09T00:01:21.154Z,100.00
2022-11-09T00:02:23.322Z,100.00
2022-11-09T00:03:25.455Z,100.00
2022-11-09T00:04:27.553Z,100.00
2022-11-09T00:05:29.695Z,100.00
2022-11-09T00:06:32.977Z,100.00
2022-11-09T00:07:35.059Z,100.00
2022-11-09T00:08:38.671Z,100.00
2022-11-09T00:09:41.498Z,100.00
2022-11-09T00:10:43.644Z,100.00
2022-11-09T00:11:45.738Z,100.00
2022-11-09T00:12:47.868Z,100.00
2022-11-09T00:13:50.465Z,100.00
2022-11-09T00:14:52.565Z,100.00
2022-11-09T00:15:58.875Z,100.00
2022-11-09T00:17:01.303Z,100.00
2022-11-09T00:18:03.724Z,100.00
2022-11-09T00:19:05.966Z,100.00
2022-11-09T00:20:08.554Z,100.00
2022-11-09T00:21:13.193Z,100.00
2022-11-09T00:22:15.314Z,100.00
2022-11-09T00:23:17.858Z,100.00
2022-11-09T00:24:20.309Z,100.00
2022-11-09T00:25:22.511Z,100.00
2022-11-09T00:26:24.623Z,100.00
2022-11-09T00:27:27.763Z,100.00
2022-11-09T00:28:32.159Z,100.00
2022-11-09T00:29:34.276Z,100.00
2022-11-09T00:30:36.428Z,100.00
2022-11-09T00:31:38.580Z,100.00
2022-11-09T00:32:44.567Z,100.00
2022-11-09T00:33:50.385Z,100.00
2022-11-09T00:34:52.484Z,100.00
2022-11-09T00:35:54.969Z,100.00
2022-11-09T00:36:57.084Z,100.00
2022-11-09T00:37:59.313Z,100.00
2022-11-09T00:39:01.540Z,100.00
2022-11-09T00:40:03.843Z,100.00
2022-11-09T00:41:07.928Z,100.00
2022-11-09T00:42:10.064Z,100.00
2022-11-09T00:43:12.273Z,100.00
2022-11-09T00:44:14.466Z,100.00
2022-11-09T00:45:16.905Z,100.00
2022-11-09T00:46:19.844Z,100.00
2022-11-09T00:47:22.432Z,100.00
2022-11-09T00:48:25.186Z,100.00
2022-11-09T00:49:27.291Z,100.00
2022-11-09T00:50:30.229Z,100.00
2022-11-09T00:51:32.539Z,100.00
2022-11-09T00:52:34.755Z,100.00
2022-11-09T00:53:37.204Z,100.00
2022-11-09T00:54:39.336Z,100.00
2022-11-09T00:55:41.440Z,100.00
2022-11-09T00:56:43.613Z,100.00
2022-11-09T00:57:49.663Z,100.00
2022-11-09T00:58:54.708Z,100.00
2022-11-09T00:59:56.822Z,100.00
2022-11-09T01:01:06.925Z,100.00
2022-11-09T01:02:09.764Z,100.00
2022-11-09T01:03:11.887Z,100.00
2022-11-09T01:04:14.092Z,100.00
2022-11-09T01:05:16.539Z,100.00
2022-11-09T01:06:21.802Z,100.00
2022-11-09T01:07:23.933Z,100.00
2022-11-09T01:08:26.454Z,100.00
2022-11-09T01:09:28.668Z,100.00
2022-11-09T01:10:30.819Z,100.00
2022-11-09T01:11:33.028Z,100.00
2022-11-09T01:12:35.185Z,100.00
2022-11-09T01:13:38.364Z,100.00
2022-11-09T01:14:42.553Z,100.00
2022-11-09T01:15:47.878Z,100.00
2022-11-09T01:16:50.162Z,100.00
2022-11-09T01:17:52.325Z,100.00
2022-11-09T01:18:58.796Z,100.00
2022-11-09T01:20:00.956Z,100.00
2022-11-09T01:21:05.303Z,100.00
2022-11-09T01:22:07.468Z,100.00
2022-11-09T01:23:11.659Z,100.00
2022-11-09T01:24:13.748Z,100.00
2022-11-09T01:25:16.000Z,100.00
2022-11-09T01:26:18.681Z,100.00
2022-11-09T01:27:20.785Z,100.00
2022-11-09T01:28:22.898Z,100.00
2022-11-09T01:29:25.028Z,100.00
2022-11-09T01:30:28.016Z,100.00
2022-11-09T01:31:30.297Z,100.00
2022-11-09T01:32:32.847Z,100.00
2022-11-09T01:33:35.929Z,100.00
2022-11-09T01:34:40.506Z,100.00
2022-11-09T01:35:42.610Z,100.00
2022-11-09T01:36:44.730Z,100.00
2022-11-09T01:37:46.870Z,100.00
2022-11-09T01:38:50.028Z,100.00
2022-11-09T01:39:52.179Z,100.00
2022-11-09T01:40:54.263Z,100.00
2022-11-09T01:41:56.399Z,100.00
2022-11-09T01:42:58.794Z,100.00
2022-11-09T01:44:14.544Z,100.00
2022-11-09T01:45:19.610Z,100.00
2022-11-09T01:46:28.863Z,100.00
2022-11-09T01:47:32.292Z,100.00
2022-11-09T01:49:13.308Z,100.00
2022-11-09T01:50:24.598Z,100.00
2022-11-09T01:51:29.590Z,100.00
2022-11-09T01:52:37.709Z,100.00
2022-11-09T01:53:47.360Z,100.00
2022-11-09T01:54:57.475Z,100.00
2022-11-09T01:56:03.397Z,100.00
2022-11-09T01:57:13.777Z,100.00
2022-11-09T01:58:27.599Z,100.00
2022-11-09T01:59:34.772Z,100.00
2022-11-09T02:00:40.899Z,100.00
2022-11-09T02:01:44.160Z,100.00
2022-11-09T02:02:51.812Z,100.00
2022-11-09T02:04:01.630Z,100.00
2022-11-09T02:05:08.866Z,100.00
2022-11-09T02:06:14.451Z,100.00
2022-11-09T02:07:17.065Z,100.00
2022-11-09T02:08:23.373Z,100.00
2022-11-09T02:09:47.409Z,100.00
2022-11-09T02:11:04.595Z,100.00
2022-11-09T02:12:07.927Z,100.00
2022-11-09T02:13:14.401Z,100.00
2022-11-09T02:14:16.887Z,100.00
2022-11-09T02:15:21.811Z,100.00
2022-11-09T02:16:24.926Z,100.00
2022-11-09T02:17:27.641Z,100.00
2022-11-09T02:18:31.544Z,100.00
2022-11-09T02:19:33.693Z,100.00
2022-11-09T02:20:50.423Z,100.00
2022-11-09T02:21:52.606Z,100.00
2022-11-09T02:22:54.814Z,100.00
2022-11-09T02:23:57.650Z,100.00
2022-11-09T02:25:00.682Z,100.00
2022-11-09T02:26:10.998Z,100.00
2022-11-09T02:27:13.651Z,100.00
2022-11-09T02:28:17.426Z,100.00
2022-11-09T02:29:27.577Z,100.00
2022-11-09T02:30:30.526Z,100.00
2022-11-09T02:31:37.519Z,100.00
2022-11-09T02:32:39.709Z,100.00
2022-11-09T02:34:03.626Z,100.00
2022-11-09T02:35:07.500Z,100.00
2022-11-09T02:36:09.681Z,100.00
2022-11-09T02:37:12.143Z,100.00
2022-11-09T02:38:15.333Z,100.00
2022-11-09T02:39:20.777Z,100.00
2022-11-09T02:40:28.771Z,100.00
2022-11-09T02:41:33.313Z,100.00
2022-11-09T02:42:35.540Z,100.00
2022-11-09T02:43:37.875Z,100.00
2022-11-09T02:44:43.876Z,100.00
2022-11-09T02:45:46.027Z,100.00
2022-11-09T02:46:48.305Z,100.00
2022-11-09T02:47:50.462Z,100.00
2022-11-09T02:48:52.622Z,100.00
2022-11-09T02:49:57.806Z,100.00
2022-11-09T02:51:00.854Z,100.00
2022-11-09T02:52:03.108Z,100.00
2022-11-09T02:53:05.463Z,100.00
2022-11-09T02:54:10.603Z,100.00
2022-11-09T02:55:14.345Z,100.00
2022-11-09T02:56:16.516Z,100.00
2022-11-09T02:57:19.585Z,100.00
2022-11-09T02:58:21.747Z,100.00
2022-11-09T02:59:23.912Z,100.00
2022-11-09T03:00:26.136Z,100.00
2022-11-09T03:01:30.162Z,100.00
2022-11-09T03:02:32.806Z,100.00
2022-11-09T03:03:35.148Z,100.00
2022-11-09T03:04:37.255Z,100.00
2022-11-09T03:05:39.918Z,100.00
2022-11-09T03:06:42.637Z,100.00
2022-11-09T03:07:49.309Z,100.00
2022-11-09T03:08:51.516Z,100.00
2022-11-09T03:09:54.371Z,100.00
2022-11-09T03:11:01.288Z,100.00
2022-11-09T03:13:40.808Z,100.00
2022-11-09T03:14:43.838Z,100.00
2022-11-09T03:15:46.032Z,100.00
2022-11-09T03:16:50.682Z,100.00
2022-11-09T03:17:53.622Z,100.00
2022-11-09T03:18:58.063Z,100.00
2022-11-09T03:20:00.935Z,100.00
2022-11-09T03:21:05.560Z,100.00
2022-11-09T03:22:08.171Z,100.00
2022-11-09T03:23:11.114Z,100.00
2022-11-09T03:24:14.474Z,100.00
2022-11-09T03:25:17.572Z,100.00
2022-11-09T03:26:21.354Z,100.00
2022-11-09T03:27:23.507Z,100.00
2022-11-09T03:28:26.188Z,100.00
2022-11-09T03:29:29.422Z,100.00
2022-11-09T03:30:32.160Z,100.00
2022-11-09T03:31:34.586Z,100.00
2022-11-09T03:32:40.313Z,100.00
2022-11-09T03:33:43.349Z,100.00
2022-11-09T03:34:45.506Z,100.00
2022-11-09T03:35:49.278Z,100.00
2022-11-09T03:36:53.674Z,100.00
2022-11-09T03:37:57.053Z,100.00
2022-11-09T03:39:00.433Z,100.00
2022-11-09T03:40:03.299Z,100.00
2022-11-09T03:41:05.587Z,100.00
2022-11-09T03:42:09.503Z,100.00
2022-11-09T03:43:13.731Z,100.00
2022-11-09T03:44:16.474Z,100.00
2022-11-09T03:45:18.598Z,100.00
2022-11-09T03:46:20.702Z,100.00
2022-11-09T03:47:22.834Z,100.00
2022-11-09T03:48:25.005Z,100.00
2022-11-09T03:49:27.091Z,100.00
2022-11-09T03:50:32.349Z,100.00
2022-11-09T03:51:34.533Z,100.00
2022-11-09T03:52:36.838Z,100.00
2022-11-09T03:53:38.940Z,100.00
2022-11-09T03:54:41.041Z,100.00
2022-11-09T03:55:43.251Z,100.00
2022-11-09T03:56:45.397Z,100.00
2022-11-09T03:57:47.544Z,100.00
2022-11-09T03:58:49.660Z,100.00
2022-11-09T03:59:51.777Z,100.00
2022-11-09T04:00:53.897Z,100.00
2022-11-09T04:01:56.064Z,100.00
2022-11-09T04:02:58.448Z,100.00
2022-11-09T04:04:00.581Z,100.00
2022-11-09T04:05:02.815Z,100.00
2022-11-09T04:06:05.412Z,100.00
2022-11-09T04:07:07.709Z,100.00
2022-11-09T04:08:10.044Z,100.00
2022-11-09T04:09:12.249Z,100.00
2022-11-09T04:10:14.430Z,100.00
2022-11-09T04:11:16.699Z,100.00
2022-11-09T04:12:18.876Z,100.00
2022-11-09T04:13:21.408Z,100.00
2022-11-09T04:14:23.846Z,100.00
2022-11-09T04:15:25.961Z,100.00
2022-11-09T04:16:28.657Z,100.00
2022-11-09T04:17:31.041Z,100.00
2022-11-09T04:18:33.497Z,100.00
2022-11-09T04:19:35.860Z,100.00
2022-11-09T04:20:37.952Z,100.00
2022-11-09T04:21:40.051Z,100.00
2022-11-09T04:22:42.147Z,100.00
2022-11-09T04:23:44.279Z,100.00
2022-11-09T04:24:46.385Z,100.00
2022-11-09T04:25:48.538Z,100.00
2022-11-09T04:26:53.758Z,100.00
2022-11-09T04:27:59.594Z,100.00
2022-11-09T04:29:01.727Z,100.00
2022-11-09T04:30:04.131Z,100.00
2022-11-09T04:31:06.354Z,100.00
2022-11-09T04:32:08.443Z,100.00
2022-11-09T04:33:10.568Z,100.00
2022-11-09T04:34:13.301Z,100.00
2022-11-09T04:35:15.686Z,100.00
2022-11-09T04:36:18.408Z,100.00
2022-11-09T04:37:20.535Z,100.00
2022-11-09T04:38:22.657Z,100.00
2022-11-09T04:39:24.847Z,100.00
2022-11-09T04:40:29.938Z,100.00
2022-11-09T04:41:32.010Z,100.00
2022-11-09T04:42:34.163Z,100.00
2022-11-09T04:43:36.242Z,100.00
2022-11-09T04:44:38.788Z,100.00
2022-11-09T04:45:40.931Z,100.00
2022-11-09T04:46:43.151Z,100.00
2022-11-09T04:47:45.295Z,100.00
2022-11-09T04:48:47.428Z,100.00
2022-11-09T04:49:49.540Z,100.00
2022-11-09T04:50:51.663Z,100.00
2022-11-09T04:51:53.772Z,100.00
2022-11-09T04:52:55.898Z,100.00
2022-11-09T04:53:58.062Z,100.00
2022-11-09T04:55:00.162Z,100.00
2022-11-09T04:56:03.270Z,100.00
2022-11-09T04:57:05.416Z,100.00
2022-11-09T04:58:08.149Z,100.00
2022-11-09T04:59:10.338Z,100.00
2022-11-09T05:00:13.076Z,100.00
2022-11-09T05:01:15.603Z,100.00
2022-11-09T05:02:17.690Z,100.00
2022-11-09T05:03:20.657Z,100.00
2022-11-09T05:04:22.965Z,100.00
2022-11-09T05:05:25.077Z,100.00
2022-11-09T05:06:33.193Z,100.00
2022-11-09T05:07:36.499Z,100.00
2022-11-09T05:08:38.613Z,100.00
2022-11-09T05:09:40.810Z,100.00
2022-11-09T05:10:42.989Z,100.00
2022-11-09T05:11:45.115Z,100.00
2022-11-09T05:12:47.283Z,100.00
2022-11-09T05:13:49.545Z,100.00
2022-11-09T05:14:51.666Z,100.00
2022-11-09T05:15:53.823Z,100.00
2022-11-09T05:16:55.961Z,100.00
2022-11-09T05:17:58.329Z,100.00
2022-11-09T05:19:00.558Z,100.00
2022-11-09T05:20:03.002Z,100.00
2022-11-09T05:21:05.239Z,100.00
2022-11-09T05:22:42.812Z,100.00
2022-11-09T05:24:00.271Z,100.00
2022-11-09T05:25:02.614Z,100.00
2022-11-09T05:26:04.754Z,100.00
2022-11-09T05:27:06.882Z,100.00
2022-11-09T05:28:09.801Z,100.00
2022-11-09T05:29:13.175Z,100.00
2022-11-09T05:30:15.756Z,100.00
2022-11-09T05:31:17.979Z,100.00
2022-11-09T05:32:20.220Z,100.00
2022-11-09T05:33:22.667Z,100.00
2022-11-09T05:34:25.231Z,100.00
2022-11-09T05:35:27.381Z,100.00
2022-11-09T05:36:30.853Z,100.00
2022-11-09T05:37:33.046Z,100.00
2022-11-09T05:38:35.293Z,100.00
2022-11-09T05:39:37.424Z,100.00
2022-11-09T05:40:39.616Z,100.00
2022-11-09T05:41:42.165Z,100.00
2022-11-09T05:42:45.020Z,100.00
2022-11-09T05:43:47.258Z,100.00
2022-11-09T05:44:49.388Z,100.00
2022-11-09T05:45:51.493Z,100.00
2022-11-09T05:46:53.605Z,100.00
2022-11-09T05:47:55.745Z,100.00
2022-11-09T05:48:57.848Z,100.00
2022-11-09T05:49:59.944Z,100.00
2022-11-09T05:51:07.070Z,100.00
2022-11-09T05:52:09.182Z,100.00
2022-11-09T05:53:12.164Z,100.00
2022-11-09T05:54:14.483Z,100.00
2022-11-09T05:55:16.784Z,100.00
2022-11-09T05:56:18.911Z,100.00
2022-11-09T05:57:21.146Z,100.00
2022-11-09T05:58:23.300Z,100.00
2022-11-09T05:59:25.413Z,100.00
2022-11-09T06:00:28.037Z,100.00
2022-11-09T06:01:30.158Z,100.00
2022-11-09T06:02:32.904Z,100.00
2022-11-09T06:03:35.115Z,100.00
2022-11-09T06:04:37.231Z,100.00
2022-11-09T06:05:40.675Z,100.00
2022-11-09T06:06:43.402Z,100.00
2022-11-09T06:07:45.844Z,100.00
2022-11-09T06:08:48.000Z,100.00
2022-11-09T06:09:50.966Z,100.00
2022-11-09T06:10:58.318Z,100.00
2022-11-09T06:12:00.492Z,100.00
2022-11-09T06:13:03.093Z,100.00
2022-11-09T06:14:05.198Z,100.00
2022-11-09T06:15:07.818Z,100.00
2022-11-09T06:16:10.293Z,100.00
2022-11-09T06:17:12.455Z,100.00
2022-11-09T06:18:14.574Z,100.00
2022-11-09T06:19:16.734Z,100.00
2022-11-09T06:20:19.011Z,100.00
2022-11-09T06:21:21.300Z,100.00
2022-11-09T06:22:23.527Z,100.00
2022-11-09T06:23:26.141Z,100.00
2022-11-09T06:24:28.285Z,100.00
2022-11-09T06:25:31.960Z,100.00
2022-11-09T06:26:34.138Z,100.00
2022-11-09T06:27:36.238Z,100.00
2022-11-09T06:28:39.547Z,100.00
2022-11-09T06:29:41.641Z,100.00
2022-11-09T06:30:43.751Z,100.00
2022-11-09T06:31:46.215Z,100.00
2022-11-09T06:32:48.487Z,100.00
2022-11-09T06:33:51.045Z,100.00
2022-11-09T06:34:53.145Z,100.00
2022-11-09T06:35:56.855Z,100.00
2022-11-09T06:36:59.027Z,100.00
2022-11-09T06:38:01.226Z,100.00
2022-11-09T06:39:03.476Z,100.00
2022-11-09T06:40:06.310Z,100.00
2022-11-09T06:41:09.869Z,100.00
2022-11-09T06:42:12.046Z,100.00
2022-11-09T06:43:14.165Z,100.00
2022-11-09T06:44:16.409Z,100.00
2022-11-09T06:45:18.572Z,100.00
2022-11-09T06:46:21.233Z,100.00
2022-11-09T06:47:23.740Z,100.00
2022-11-09T06:48:25.832Z,100.00
2022-11-09T06:49:28.416Z,100.00
2022-11-09T06:50:32.734Z,100.00
2022-11-09T06:51:34.901Z,100.00
2022-11-09T06:52:37.015Z,100.00
2022-11-09T06:53:41.312Z,100.00
2022-11-09T06:54:43.433Z,100.00
2022-11-09T06:55:50.145Z,100.00
2022-11-09T06:56:55.024Z,100.00
2022-11-09T06:57:58.303Z,100.00
2022-11-09T06:59:00.483Z,100.00
2022-11-09T07:00:05.305Z,100.00
2022-11-09T07:01:10.185Z,100.00
2022-11-09T07:02:17.621Z,100.00
2022-11-09T07:03:21.180Z,100.00
2022-11-09T07:04:23.532Z,100.00
2022-11-09T07:05:25.648Z,100.00
2022-11-09T07:06:27.841Z,100.00
2022-11-09T07:07:30.149Z,100.00
2022-11-09T07:08:33.043Z,100.00
2022-11-09T07:09:35.152Z,100.00
2022-11-09T07:10:37.369Z,100.00
2022-11-09T07:11:39.633Z,100.00
2022-11-09T07:12:41.821Z,100.00
2022-11-09T07:13:43.989Z,100.00
2022-11-09T07:14:46.109Z,100.00
2022-11-09T07:15:54.483Z,100.00
2022-11-09T07:16:56.577Z,100.00
2022-11-09T07:18:00.030Z,100.00
2022-11-09T07:19:02.246Z,100.00
2022-11-09T07:20:05.222Z,100.00
2022-11-09T07:21:12.842Z,100.00
2022-11-09T07:22:16.393Z,100.00
2022-11-09T07:23:19.224Z,100.00
2022-11-09T07:24:21.629Z,100.00
2022-11-09T07:25:25.112Z,100.00
2022-11-09T07:26:27.517Z,100.00
2022-11-09T07:27:29.621Z,100.00
2022-11-09T07:28:31.766Z,100.00
2022-11-09T07:29:33.904Z,100.00
2022-11-09T07:30:37.015Z,100.00
2022-11-09T07:31:39.162Z,100.00
2022-11-09T07:34:04.899Z,100.00
2022-11-09T07:35:08.804Z,100.00
2022-11-09T07:36:10.988Z,100.00
2022-11-09T07:37:13.325Z,100.00
2022-11-09T07:38:16.058Z,100.00
2022-11-09T07:39:18.165Z,100.00
2022-11-09T07:40:20.665Z,100.00
2022-11-09T07:41:22.802Z,100.00
2022-11-09T07:42:25.455Z,100.00
2022-11-09T07:43:29.679Z,100.00
2022-11-09T07:44:33.730Z,100.00
2022-11-09T07:45:36.754Z,100.00
2022-11-09T07:46:39.075Z,100.00
2022-11-09T07:47:41.222Z,100.00
2022-11-09T07:48:43.421Z,100.00
2022-11-09T07:49:45.937Z,100.00
2022-11-09T07:50:48.163Z,100.00
2022-11-09T07:51:50.277Z,100.00
2022-11-09T07:52:52.430Z,100.00
2022-11-09T07:53:54.586Z,100.00
2022-11-09T07:54:56.769Z,100.00
2022-11-09T07:56:00.639Z,100.00
2022-11-09T07:57:02.747Z,100.00
2022-11-09T07:58:11.001Z,100.00
2022-11-09T07:59:13.153Z,100.00
2022-11-09T08:00:22.472Z,100.00
2022-11-09T08:01:26.034Z,100.00
2022-11-09T08:02:28.196Z,100.00
2022-11-09T08:03:30.342Z,100.00
2022-11-09T08:04:32.639Z,100.00
2022-11-09T08:05:35.555Z,100.00
2022-11-09T08:06:37.792Z,100.00
2022-11-09T08:07:39.931Z,100.00
2022-11-09T08:08:42.081Z,100.00
2022-11-09T08:09:44.212Z,100.00
2022-11-09T08:10:51.340Z,100.00
2022-11-09T08:11:53.482Z,100.00
2022-11-09T08:13:01.455Z,100.00
2022-11-09T08:14:03.569Z,100.00
2022-11-09T08:15:06.375Z,100.00
2022-11-09T08:16:08.621Z,100.00
2022-11-09T08:17:10.778Z,100.00
2022-11-09T08:18:20.097Z,100.00
2022-11-09T08:19:22.516Z,100.00
2022-11-09T08:20:24.704Z,100.00
2022-11-09T08:21:26.861Z,100.00
2022-11-09T08:22:28.971Z,100.00
2022-11-09T08:23:31.603Z,100.00
2022-11-09T08:24:33.709Z,100.00
2022-11-09T08:25:36.453Z,100.00
2022-11-09T08:26:38.601Z,100.00
2022-11-09T08:27:40.889Z,100.00
2022-11-09T08:28:43.025Z,100.00
2022-11-09T08:29:45.276Z,100.00
2022-11-09T08:30:58.753Z,100.00
2022-11-09T08:32:00.864Z,100.00
2022-11-09T08:33:03.601Z,100.00
2022-11-09T08:34:05.712Z,100.00
2022-11-09T08:35:10.198Z,100.00
2022-11-09T08:36:14.693Z,100.00
2022-11-09T08:37:17.040Z,100.00
2022-11-09T08:38:19.524Z,100.00
2022-11-09T08:39:23.564Z,100.00
2022-11-09T08:40:26.833Z,100.00
2022-11-09T08:41:29.413Z,100.00
2022-11-09T08:42:31.576Z,100.00
2022-11-09T08:43:33.801Z,100.00
2022-11-09T08:44:35.907Z,100.00
2022-11-09T08:45:39.619Z,100.00
2022-11-09T08:46:41.743Z,100.00
2022-11-09T08:47:44.679Z,100.00
2022-11-09T08:48:47.389Z,100.00
2022-11-09T08:49:49.565Z,100.00
2022-11-09T08:50:54.402Z,100.00
2022-11-09T08:51:56.509Z,100.00
2022-11-09T08:52:58.950Z,100.00
2022-11-09T08:54:01.197Z,100.00
2022-11-09T08:55:03.937Z,100.00
2022-11-09T08:56:07.866Z,100.00
2022-11-09T08:57:10.120Z,100.00
2022-11-09T08:58:12.239Z,100.00
2022-11-09T08:59:14.395Z,100.00
2022-11-09T09:00:16.861Z,100.00
2022-11-09T09:01:19.265Z,100.00
2022-11-09T09:02:21.451Z,100.00
2022-11-09T09:03:23.625Z,100.00
2022-11-09T09:04:25.810Z,100.00
2022-11-09T09:05:27.982Z,100.00
2022-11-09T09:06:31.491Z,100.00
2022-11-09T09:07:34.486Z,100.00
2022-11-09T09:08:36.610Z,100.00
2022-11-09T09:09:38.993Z,100.00
2022-11-09T09:10:42.564Z,100.00
2022-11-09T09:11:44.820Z,100.00
2022-11-09T09:12:47.169Z,100.00
2022-11-09T09:13:49.300Z,100.00
2022-11-09T09:14:51.494Z,100.00
2022-11-09T09:15:53.646Z,100.00
2022-11-09T09:16:56.190Z,100.00
2022-11-09T09:18:03.202Z,100.00
2022-11-09T09:19:05.299Z,100.00
2022-11-09T09:20:07.752Z,98.14
2022-11-09T09:21:11.011Z,100.00
2022-11-09T09:22:13.130Z,100.00
2022-11-09T09:23:16.964Z,100.00
2022-11-09T09:24:19.104Z,100.00
2022-11-09T09:25:21.238Z,100.00
2022-11-09T09:26:23.468Z,100.00
2022-11-09T09:27:25.573Z,100.00
2022-11-09T09:28:27.742Z,100.00
2022-11-09T09:29:29.868Z,100.00
2022-11-09T09:30:32.115Z,100.00
2022-11-09T09:31:34.217Z,100.00
2022-11-09T09:32:36.338Z,100.00
2022-11-09T09:33:38.675Z,100.00
2022-11-09T09:34:40.845Z,100.00
2022-11-09T09:35:42.982Z,100.00
2022-11-09T09:36:48.279Z,100.00
2022-11-09T09:37:50.613Z,100.00
2022-11-09T09:38:54.360Z,100.00
2022-11-09T09:39:56.492Z,100.00
2022-11-09T09:40:59.946Z,100.00
2022-11-09T09:42:06.705Z,100.00
2022-11-09T09:43:42.978Z,100.00
2022-11-09T09:45:04.030Z,100.00
2022-11-09T09:46:14.032Z,100.00
2022-11-09T09:47:36.675Z,100.00
2022-11-09T09:48:45.229Z,100.00
2022-11-09T09:49:54.318Z,100.00
2022-11-09T09:51:04.132Z,100.00
2022-11-09T09:52:16.203Z,100.00
2022-11-09T09:53:57.365Z,100.00
2022-11-09T09:55:11.695Z,100.00
2022-11-09T09:56:34.126Z,100.00
2022-11-09T09:57:41.661Z,100.00
2022-11-09T09:58:51.812Z,100.00
2022-11-09T09:59:58.831Z,100.00
2022-11-09T10:01:17.229Z,100.00
2022-11-09T10:02:26.069Z,100.00
2022-11-09T10:03:28.380Z,100.00
2022-11-09T10:04:41.930Z,100.00
2022-11-09T10:06:04.328Z,100.00
2022-11-09T10:07:30.426Z,100.00
2022-11-09T10:08:40.065Z,100.00
2022-11-09T10:10:00.689Z,100.00
2022-11-09T10:11:27.307Z,100.00
2022-11-09T10:13:01.173Z,100.00
2022-11-09T10:14:18.129Z,100.00
2022-11-09T10:15:58.682Z,100.00
2022-11-09T10:17:25.368Z,100.00
2022-11-09T10:18:51.042Z,90.97
2022-11-09T10:20:01.183Z,90.09
2022-11-09T10:21:29.306Z,89.89
2022-11-09T10:22:59.131Z,89.33
2022-11-09T10:24:21.408Z,96.98
2022-11-09T10:25:57.897Z,100.00
2022-11-09T10:26:51.319Z,100.00
2022-11-09T10:27:59.629Z,100.00
2022-11-09T10:29:16.596Z,100.00
2022-11-09T10:30:21.573Z,100.00
2022-11-09T10:31:24.089Z,100.00
2022-11-09T10:32:31.407Z,100.00
2022-11-09T10:33:33.493Z,100.00
2022-11-09T10:34:56.080Z,100.00
2022-11-09T10:36:11.498Z,100.00
2022-11-09T10:37:20.122Z,100.00
2022-11-09T10:38:27.961Z,100.00
2022-11-09T10:40:13.542Z,100.00
2022-11-09T10:41:37.413Z,100.00
2022-11-09T10:43:00.781Z,100.00
2022-11-09T10:44:21.446Z,100.00
2022-11-09T10:45:43.483Z,100.00
2022-11-09T10:47:12.357Z,100.00
2022-11-09T10:48:39.896Z,100.00
2022-11-09T10:50:29.830Z,100.00
2022-11-09T10:51:50.325Z,100.00
2022-11-09T10:53:14.007Z,100.00
2022-11-09T10:54:37.923Z,100.00
2022-11-09T10:56:10.757Z,100.00
2022-11-09T10:57:31.308Z,100.00
2022-11-09T10:58:53.458Z,100.00
2022-11-09T11:00:16.630Z,100.00
2022-11-09T11:01:38.322Z,100.00
2022-11-09T11:03:10.488Z,100.00
2022-11-09T11:04:31.009Z,100.00
2022-11-09T11:06:00.436Z,100.00
2022-11-09T11:07:22.732Z,100.00
2022-11-09T11:08:46.594Z,100.00
2022-11-09T11:10:16.238Z,100.00
2022-11-09T11:11:38.915Z,100.00
2022-11-09T11:12:59.653Z,100.00
2022-11-09T11:14:33.655Z,97.63
2022-11-09T11:15:54.471Z,94.50
2022-11-09T11:17:27.833Z,90.90
2022-11-09T11:18:48.771Z,89.22
2022-11-09T11:20:18.187Z,87.84
2022-11-09T11:21:38.620Z,86.91
2022-11-09T11:23:21.583Z,87.32
2022-11-09T11:24:46.600Z,87.72
2022-11-09T11:26:19.244Z,85.60
2022-11-09T11:27:46.666Z,83.07
2022-11-09T11:29:28.886Z,82.77
2022-11-09T11:30:49.831Z,79.98
2022-11-09T11:32:18.274Z,77.53
2022-11-09T11:33:38.863Z,80.75
2022-11-09T11:35:01.272Z,80.47
2022-11-09T11:36:49.507Z,82.53
2022-11-09T11:38:13.136Z,82.49
2022-11-09T11:40:08.144Z,81.91
2022-11-09T11:41:53.747Z,86.18
2022-11-09T11:43:20.960Z,89.32
2022-11-09T11:44:59.413Z,93.13
2022-11-09T11:46:41.472Z,93.45
2022-11-09T11:48:12.448Z,92.90
2022-11-09T11:49:55.779Z,94.36
2022-11-09T11:51:36.212Z,96.93
2022-11-09T11:53:13.384Z,95.41
2022-11-09T11:54:51.883Z,92.87
2022-11-09T11:56:27.470Z,92.96
2022-11-09T11:58:09.384Z,91.11
2022-11-09T11:59:43.381Z,92.91
2022-11-09T12:01:35.236Z,89.85
2022-11-09T12:03:21.229Z,89.72
2022-11-09T12:04:42.414Z,93.09
2022-11-09T12:06:02.844Z,93.52
2022-11-09T12:07:43.231Z,90.30
2022-11-09T12:09:25.533Z,85.45
2022-11-09T12:10:48.872Z,81.38
2022-11-09T12:12:40.177Z,86.70
2022-11-09T12:14:25.516Z,92.20
2022-11-09T12:15:59.642Z,98.34
2022-11-09T12:17:40.978Z,99.31
2022-11-09T12:19:12.161Z,100.00
2022-11-09T12:20:48.240Z,100.00
2022-11-09T12:22:41.784Z,100.00
2022-11-09T12:24:17.249Z,96.51
2022-11-09T12:25:55.795Z,93.43
2022-11-09T12:27:36.635Z,96.58
2022-11-09T12:29:15.999Z,94.83
2022-11-09T12:30:53.058Z,94.48
2022-11-09T12:32:35.153Z,87.63
2022-11-09T12:34:08.253Z,87.21
2022-11-09T12:35:34.655Z,83.35
2022-11-09T12:37:01.825Z,80.72
2022-11-09T12:39:07.274Z,83.71
2022-11-09T12:40:56.060Z,85.38
2022-11-09T12:42:27.874Z,86.83
2022-11-09T12:43:53.882Z,91.09
2022-11-09T12:45:34.238Z,94.84
2022-11-09T12:47:19.383Z,97.41
2022-11-09T12:48:40.912Z,98.64
2022-11-09T12:50:02.063Z,97.07
2022-11-09T12:51:23.277Z,95.16
2022-11-09T12:52:45.646Z,95.06
2022-11-09T12:54:12.397Z,97.25
2022-11-09T12:55:53.205Z,100.00
2022-11-09T12:57:27.625Z,100.00
2022-11-09T12:58:48.252Z,100.00
2022-11-09T13:00:35.196Z,100.00
2022-11-09T13:01:58.427Z,100.00
2022-11-09T13:03:25.824Z,100.00
2022-11-09T13:04:58.792Z,100.00
2022-11-09T13:06:28.738Z,100.00
2022-11-09T13:07:53.164Z,100.00
2022-11-09T13:09:16.916Z,100.00
2022-11-09T13:10:39.036Z,100.00
2022-11-09T13:12:16.271Z,100.00
2022-11-09T13:13:37.399Z,100.00
2022-11-09T13:15:26.155Z,100.00
2022-11-09T13:16:47.889Z,100.00
2022-11-09T13:18:50.485Z,100.00
2022-11-09T13:22:19.630Z,100.00
2022-11-09T13:25:44.299Z,100.00
2022-11-09T13:27:05.129Z,100.00
2022-11-09T13:28:28.818Z,100.00
2022-11-09T13:29:53.738Z,100.00
2022-11-09T13:31:55.464Z,100.00
2022-11-09T13:33:17.520Z,100.00
2022-11-09T13:34:42.794Z,100.00
2022-11-09T13:36:06.399Z,100.00
2022-11-09T13:37:42.246Z,100.00
2022-11-09T13:39:30.833Z,100.00
2022-11-09T13:40:54.416Z,100.00
2022-11-09T13:42:24.402Z,100.00
2022-11-09T13:43:45.183Z,100.00
2022-11-09T13:45:43.724Z,100.00
2022-11-09T13:47:05.067Z,100.00
2022-11-09T13:48:29.413Z,100.00
2022-11-09T13:49:52.044Z,100.00
2022-11-09T13:51:18.386Z,100.00
2022-11-09T13:52:44.941Z,100.00
2022-11-09T13:54:35.621Z,100.00
2022-11-09T13:55:56.711Z,100.00
2022-11-09T13:57:17.591Z,100.00
2022-11-09T13:58:40.662Z,100.00
2022-11-09T14:00:03.622Z,100.00
2022-11-09T14:01:48.749Z,100.00
2022-11-09T14:03:27.844Z,100.00
2022-11-09T14:04:48.536Z,100.00
2022-11-09T14:06:12.707Z,100.00
2022-11-09T14:07:35.281Z,100.00
2022-11-09T14:08:56.943Z,100.00
2022-11-09T14:10:36.119Z,100.00
2022-11-09T14:12:24.740Z,100.00
2022-11-09T14:13:48.346Z,100.00
2022-11-09T14:15:27.694Z,100.00
2022-11-09T14:17:13.902Z,100.00
2022-11-09T14:18:53.024Z,100.00
2022-11-09T14:20:28.903Z,100.00
2022-11-09T14:21:52.238Z,100.00
2022-11-09T14:23:28.255Z,100.00
2022-11-09T14:24:49.315Z,100.00
2022-11-09T14:26:24.550Z,100.00
2022-11-09T14:27:58.622Z,100.00
2022-11-09T14:29:24.484Z,100.00
2022-11-09T14:30:45.463Z,100.00
2022-11-09T14:32:18.146Z,100.00
2022-11-09T14:33:38.664Z,100.00
2022-11-09T14:35:19.886Z,100.00
2022-11-09T14:36:40.824Z,100.00
2022-11-09T14:38:15.929Z,100.00
2022-11-09T14:39:37.220Z,100.00
2022-11-09T14:40:58.142Z,100.00
2022-11-09T14:42:21.157Z,100.00
2022-11-09T14:43:44.996Z,100.00